• Join FlightAware (Why Join?)
  • Login
  • US Flag 
09:37PM EDT


 

Airport Tracker/Info


-or-


 

Live Flight TrackerFlight Track Log ✈ VOZ735 ✈ 14-Aug-2013 ✈ YMML / MEL - YBCG / OOL

Flight Track Log - Related Links

Times and Time Zones

All times are in EDT time to prevent confusion due to time zone crossing. See the VOZ735 flight status page for this flight to view local times or setup timezone preferences in your user account.

Time Position Orientation Groundspeed Altitude Reporting Facility
EDT Latitude Longitude Course Direction KTS MPH feet Rate Location/Type
08:54PM -37.6530 144.8350 352° North 150 173 2,100  Level FlightAware
08:54PM -37.6479 144.8337 354° North 154 177 2,300 3,000 Climbing Aus ATC (RADAR)
08:54PM -37.6420 144.8330 352° North 161 185 2,900 2,400 Climbing FlightAware
08:54PM -37.6290 144.8310 353° North 194 223 3,300 1,860 Climbing FlightAware
08:55PM -37.6050 144.8260 351° North 225 259 4,100 2,760 Climbing FlightAware
08:55PM -37.5760 144.8310 North 264 304 5,600 3,900 Climbing FlightAware
08:55PM -37.5580 144.8420 26° Northeast 269 310 6,700 3,900 Climbing FlightAware
08:56PM -37.5280 144.8610 27° Northeast 285 328 8,200 3,600 Climbing FlightAware
08:56PM -37.5050 144.8750 26° Northeast 276 318 9,400 3,240 Climbing FlightAware
08:57PM -37.4690 144.8970 26° Northeast 288 331 10,900 2,340 Climbing FlightAware
08:57PM -37.4200 144.9311 26° Northeast 326 375 12,000 2,460 Climbing Aus ATC (RADAR)
08:57PM -37.4180 144.9340 26° Northeast 341 392 12,500 3,960 Climbing FlightAware
08:58PM -37.3730 144.9760 37° Northeast 344 396 14,600 3,120 Climbing FlightAware
08:59PM -37.3270 145.0180 36° Northeast 356 410 16,200 2,760 Climbing FlightAware
08:59PM -37.2870 145.0580 39° Northeast 365 420 17,600 2,700 Climbing FlightAware
09:00PM -37.2270 145.1200 39° Northeast 379 436 19,600 2,520 Climbing FlightAware
09:00PM -37.1828 145.1659 39° Northeast 381 438 20,800 2,640 Climbing Aus ATC (RADAR)
09:00PM -37.1790 145.1710 39° Northeast 378 435 21,200 3,000 Climbing FlightAware
09:01PM -37.1320 145.2200 40° Northeast 380 437 22,700 2,220 Climbing FlightAware
09:02PM -37.0820 145.2710 39° Northeast 396 456 23,800 1,860 Climbing FlightAware
09:02PM -37.0320 145.3210 39° Northeast 400 460 24,900 1,860 Climbing FlightAware
09:03PM -36.9800 145.3750 40° Northeast 414 476 26,000 1,560 Climbing FlightAware
09:03PM -36.9323 145.4236 40° Northeast 417 480 26,700 1,800 Climbing Aus ATC (RADAR)
09:03PM -36.9210 145.4350 40° Northeast 422 486 27,200 1,980 Climbing FlightAware
09:04PM -36.8750 145.4820 39° Northeast 425 489 28,000 1,560 Climbing FlightAware
09:04PM -36.8260 145.5330 40° Northeast 439 505 28,900 1,620 Climbing FlightAware
09:05PM -36.7620 145.5980 39° Northeast 444 511 29,900 1,500 Climbing FlightAware
09:06PM -36.7060 145.6550 39° Northeast 457 526 30,700 1,200 Climbing FlightAware
09:06PM -36.6375 145.7235 39° Northeast 461 531 31,400 1,320 Climbing Aus ATC (RADAR)
09:06PM -36.6380 145.7240 39° Northeast 458 527 31,600 1,620 Climbing FlightAware
09:07PM -36.5800 145.7830 39° Northeast 463 533 32,400 1,320 Climbing FlightAware
09:07PM -36.5200 145.8430 39° Northeast 474 545 33,200 1,200 Climbing FlightAware
09:08PM -36.4590 145.9040 39° Northeast 482 555 33,800 900 Climbing FlightAware
09:09PM -36.4000 145.9640 39° Northeast 482 555 34,300 840 Climbing FlightAware
09:09PM -36.3379 146.0267 39° Northeast 489 563 34,800 960 Climbing Aus ATC (RADAR)
09:09PM -36.3370 146.0260 39° Northeast 485 558 34,900 1,380 Climbing FlightAware
09:10PM -36.2760 146.0880 39° Northeast 485 558 35,700 1,440 Climbing FlightAware
09:10PM -36.2140 146.1510 39° Northeast 480 552 36,600 1,440 Climbing FlightAware
09:11PM -36.1540 146.2100 38° Northeast 481 554 37,400 900 Climbing FlightAware
09:12PM -36.0810 146.2830 39° Northeast 481 554 37,800 420 Climbing FlightAware
09:12PM -36.0110 146.3530 39° Northeast 497 572 38,000 300 Climbing FlightAware
09:13PM -35.9610 146.4020 38° Northeast 501 577 38,200 540 Climbing FlightAware
09:13PM -35.8930 146.4690 39° Northeast 499 574 38,600 600 Climbing FlightAware
09:14PM -35.8090 146.5530 39° Northeast 507 583 39,000 240 Climbing FlightAware
09:15PM -35.7460 146.6140 38° Northeast 507 583 39,000  Level FlightAware
09:15PM -35.6930 146.6660 39° Northeast 507 583 39,000  Level FlightAware
09:16PM -35.6250 146.7320 38° Northeast 505 581 39,000 -120 Level FlightAware
09:16PM -35.5675 146.7898 38° Northeast 502 578 38,900  Descending Aus ATC (RADAR)
09:17PM -35.5500 146.8060 38° Northeast 503 579 39,000 120 Climbing FlightAware
09:17PM -35.5000 146.8550 39° Northeast 501 577 39,000  Level FlightAware
09:18PM -35.4390 146.9150 39° Northeast 501 577 39,000  Level FlightAware
09:18PM -35.3610 146.9920 39° Northeast 499 574 39,000  Level FlightAware
09:19PM -35.3080 147.0430 38° Northeast 500 575 39,000  Level FlightAware
09:19PM -35.2320 147.1160 38° Northeast 496 571 39,000  Level FlightAware
09:20PM -35.2244 147.1249 38° Northeast 499 574 39,000  Level Aus ATC (RADAR)
09:20PM -35.1600 147.1850 38° Northeast 496 571 39,000  Level FlightAware
09:21PM -35.1040 147.2390 38° Northeast 497 572 39,000  Level FlightAware
09:21PM -35.0410 147.3003 38° Northeast 500 575 39,000  Level Aus ATC (RADAR)
09:21PM -35.0420 147.2990 38° Northeast 498 573 39,000  Level FlightAware
09:22PM -34.9760 147.3620 38° Northeast 501 577 39,000  Level FlightAware
09:22PM -34.9030 147.4310 38° Northeast 507 583 39,000  Level FlightAware
09:23PM -34.8370 147.4950 39° Northeast 509 586 39,000  Level FlightAware
09:24PM -34.7810 147.5480 38° Northeast 508 585 39,000  Level FlightAware
09:24PM -34.7180 147.6090 39° Northeast 509 586 39,000  Level FlightAware
09:25PM -34.6440 147.6780 37° Northeast 507 583 39,000  Level FlightAware
09:25PM -34.5690 147.7490 38° Northeast 498 573 39,000  Level FlightAware
09:26PM -34.5058 147.8093 38° Northeast 503 579 39,000  Level Aus ATC (RADAR)
09:26PM -34.5060 147.8090 38° Northeast 498 573 39,000  Level FlightAware
09:27PM -34.4415 147.8701 38° Northeast 502 578 39,000  Level Aus ATC (RADAR)
09:27PM -34.4400 147.8710 38° Northeast 497 572 39,000  Level FlightAware
09:27PM -34.3770 147.9310 38° Northeast 498 573 39,000  Level FlightAware
09:28PM -34.3120 147.9920 38° Northeast 497 572 39,000  Level FlightAware
09:28PM -34.2480 148.0530 38° Northeast 498 573 39,000  Level FlightAware
09:29PM -34.1810 148.1150 37° Northeast 504 580 39,000  Level FlightAware
09:30PM -34.1160 148.1760 38° Northeast 504 580 39,000  Level FlightAware
09:30PM -34.0510 148.2360 37° Northeast 504 580 39,000  Level FlightAware
09:31PM -33.9860 148.2960 37° Northeast 506 582 39,000  Level FlightAware
09:31PM -33.9320 148.3470 38° Northeast 506 582 39,000  Level FlightAware
09:32PM -33.8702 148.4038 38° Northeast 504 580 39,000  Level Aus ATC (RADAR)
09:32PM -33.8540 148.4190 38° Northeast 508 585 39,000  Level FlightAware
09:32PM -33.7910 148.4770 37° Northeast 506 582 39,000  Level FlightAware
09:33PM -33.7340 148.5290 37° Northeast 503 579 39,000  Level FlightAware
09:34PM -33.6630 148.5950 38° Northeast 493 567 39,000  Level FlightAware
09:34PM -33.6080 148.6460 38° Northeast 491 565 39,000  Level FlightAware
09:35PM -33.5350 148.7130 37° Northeast 489 563 39,000  Level FlightAware
09:35PM -33.4700 148.7730 38° Northeast 489 563 39,000  Level FlightAware
09:36PM -33.4060 148.8310 37° Northeast 489 563 39,000 -120 Level FlightAware
09:37PM -33.3487 148.8836 37° Northeast 490 564 38,900  Descending Aus ATC (RADAR)
09:37PM -33.3330 148.8980 37° Northeast 490 564 39,000 60 Climbing FlightAware
09:37PM -33.2530 148.9710 37° Northeast 488 562 39,000  Level FlightAware
09:38PM -33.1960 149.0220 37° Northeast 488 562 39,000  Level FlightAware
09:39PM -33.1240 149.0870 37° Northeast 487 560 39,000  Level FlightAware
09:39PM -33.0690 149.1370 37° Northeast 487 560 39,000 -120 Level FlightAware
09:40PM -33.0123 149.1881 37° Northeast 488 562 38,900  Descending Aus ATC (RADAR)
09:40PM -32.9990 149.2000 37° Northeast 487 560 39,000 120 Climbing FlightAware
09:40PM -32.9410 149.2530 37° Northeast 487 560 39,000  Level FlightAware
09:41PM -32.8770 149.3100 37° Northeast 487 560 39,000  Level FlightAware
09:42PM -32.8060 149.3750 38° Northeast 488 562 39,000  Level FlightAware
09:42PM -32.7500 149.4250 37° Northeast 489 563 39,000 -120 Level FlightAware
09:43PM -32.6939 149.4750 37° Northeast 490 564 38,900  Descending Aus ATC (RADAR)
09:43PM -32.6840 149.4840 37° Northeast 491 565 39,000 120 Climbing FlightAware
09:43PM -32.6220 149.5400 37° Northeast 491 565 39,000  Level FlightAware
09:44PM -32.5560 149.5980 37° Northeast 492 566 39,000  Level FlightAware
09:44PM -32.4810 149.6620 36° Northeast 496 571 39,000  Level FlightAware
09:45PM -32.4260 149.7080 35° Northeast 492 566 39,000  Level FlightAware
09:46PM -32.3610 149.7610 35° Northeast 494 568 39,000  Level FlightAware
09:46PM -32.2930 149.8180 35° Northeast 494 568 39,000  Level FlightAware
09:47PM -32.2290 149.8730 36° Northeast 498 573 39,000  Level FlightAware
09:47PM -32.1600 149.9300 35° Northeast 495 570 39,000  Level FlightAware
09:48PM -32.1000 149.9800 35° Northeast 496 571 39,000  Level FlightAware
09:48PM -32.0290 150.0390 35° Northeast 495 570 39,000  Level FlightAware
09:49PM -31.9640 150.0940 36° Northeast 495 570 39,000 60 Level FlightAware
09:50PM -31.8815 150.1619 36° Northeast 488 562 39,100  Climbing Aus ATC (RADAR)
09:50PM -31.8770 150.1650 36° Northeast 495 570 39,000 -180 Descending FlightAware
09:50PM -31.8130 150.2190 36° Northeast 400 460 39,000  Level FlightAware
09:51PM -31.7440 150.2750 35° Northeast 494 568 39,000  Level FlightAware
09:52PM -31.6790 150.3290 35° Northeast 493 567 39,000  Level FlightAware
09:52PM -31.5880 150.4040 35° Northeast 492 566 39,000  Level FlightAware
09:53PM -31.5340 150.4490 35° Northeast 493 567 39,000  Level FlightAware
09:53PM -31.4670 150.5030 35° Northeast 493 567 39,000  Level FlightAware
09:54PM -31.4070 150.5530 35° Northeast 493 567 39,000  Level FlightAware
09:55PM -31.3360 150.6100 34° Northeast 494 568 39,000 60 Level FlightAware
09:55PM -31.2796 150.6565 34° Northeast 496 571 39,100  Climbing Aus ATC (RADAR)
09:55PM -31.2580 150.6740 34° Northeast 495 570 39,000 -120 Descending FlightAware
09:56PM -31.2000 150.7210 35° Northeast 495 570 39,000  Level FlightAware
09:57PM -31.0800 150.8180 35° Northeast 494 568 39,000 60 Level FlightAware
09:57PM -31.0685 150.8296 35° Northeast 486 559 39,100  Climbing Aus ATC (RADAR)
09:58PM -31.0220 150.8630 34° Northeast 494 568 39,000 -120 Descending FlightAware
09:58PM -30.9640 150.9090 34° Northeast 494 568 39,000 60 Level FlightAware
09:59PM -30.8988 151.0332 34° Northeast 514 592 39,100  Climbing Aus ATC (RADAR)
09:59PM -30.9060 150.9550 34° Northeast 494 568 39,000  Descending FlightAware
09:59PM -30.8366 151.1092 34° Northeast 503 579 39,100  Climbing Aus ATC (RADAR)
09:59PM -30.8480 151.0000 34° Northeast 494 568 39,000 -180 Descending FlightAware
10:00PM -30.7900 151.0460 34° Northeast 494 568 39,000  Level FlightAware
10:01PM -30.7320 151.0910 34° Northeast 494 568 39,000  Level FlightAware
10:01PM -30.6910 151.2880 76° East 515 593 39,000  Level FlightAware
10:02PM -30.6210 151.3710 46° Northeast 514 592 39,000  Level FlightAware
10:02PM -30.5460 151.4620 46° Northeast 515 593 39,000  Level FlightAware
10:03PM -30.5010 151.5150 45° Northeast 515 593 39,000  Level FlightAware
10:03PM -30.4326 151.5965 45° Northeast 502 578 39,000  Level Aus ATC (RADAR)
10:03PM -30.4290 151.6020 45° Northeast 516 594 39,000  Level FlightAware
10:04PM -30.3820 151.6580 46° Northeast 515 593 39,000  Level FlightAware
10:05PM -30.3270 151.7230 46° Northeast 515 593 39,000  Level FlightAware
10:05PM -30.2670 151.7960 46° Northeast 514 592 39,000  Level FlightAware
10:06PM -30.2060 151.8690 46° Northeast 511 588 39,000  Level FlightAware
10:06PM -30.1440 151.9430 46° Northeast 511 588 39,000  Level FlightAware
10:07PM -30.0910 152.0060 46° Northeast 511 588 39,000  Level FlightAware
10:08PM -30.0100 152.1020 46° Northeast 509 586 39,000  Level FlightAware
10:08PM -29.9518 152.1701 46° Northeast 510 587 39,000  Level Aus ATC (RADAR)
10:08PM -29.9550 152.1650 46° Northeast 509 586 39,000  Level FlightAware
10:09PM -29.8730 152.2690 48° Northeast 510 587 39,000 -1,320 Level FlightAware
10:10PM -29.8100 152.3390 44° Northeast 506 582 37,200 -3,000 Descending FlightAware
10:10PM -29.7586 152.3983 44° Northeast 484 557 35,800  Descending Aus ATC (RADAR)
10:10PM -29.7570 152.4020 44° Northeast 506 582 37,200 -2,580 Climbing FlightAware
10:11PM -29.6920 152.4761 44° Northeast 491 565 34,100 -5,700 Descending Aus ATC (RADAR)
10:11PM -29.6890 152.4810 44° Northeast 511 588 33,900 -2,880 Descending FlightAware
10:12PM -29.6310 152.5490 46° Northeast 512 589 32,300 -2,700 Descending FlightAware
10:12PM -29.5560 152.6369 46° Northeast 515 593 30,400 -1,680 Descending Aus ATC (RADAR)
10:12PM -29.5430 152.6500 46° Northeast 518 596 30,800 -2,100 Climbing FlightAware
10:13PM -29.4920 152.7110 46° Northeast 497 572 29,000 -2,880 Descending FlightAware
10:13PM -29.4380 152.7740 45° Northeast 487 560 27,800 -1,560 Descending FlightAware
10:14PM -29.3600 152.8640 45° Northeast 480 552 26,800 -2,580 Descending FlightAware
10:15PM -29.3030 152.9300 45° Northeast 476 548 24,200 -2,580 Descending FlightAware
10:16PM -29.2550 152.9860 46° Northeast 475 547 23,900 -1,860 Descending FlightAware
10:16PM -29.1910 153.0600 45° Northeast 449 517 21,900 -1,860 Descending FlightAware
10:17PM -29.1490 153.1080 45° Northeast 448 516 21,700 -2,160 Descending FlightAware
10:17PM -29.0970 153.1680 45° Northeast 428 493 19,600 -2,880 Descending FlightAware
10:18PM -29.0520 153.2200 45° Northeast 416 479 18,500 -2,220 Descending FlightAware
10:18PM -29.0040 153.2760 46° Northeast 409 471 17,000 -2,400 Descending FlightAware
10:19PM -28.9570 153.3290 45° Northeast 395 455 15,700 -2,100 Descending FlightAware
10:20PM -28.8983 153.3976 45° Northeast 384 442 14,300 -1,020 Descending Aus ATC (RADAR)
10:20PM -28.8860 153.4110 45° Northeast 383 441 14,700 420 Climbing FlightAware
10:21PM -28.8470 153.4550 45° Northeast 383 441 14,700 -3,480 Level FlightAware
10:21PM -28.8200 153.4730 30° Northeast 360 414 12,000 -3,360 Descending FlightAware
10:21PM -28.7720 153.5010 27° Northeast 360 414 12,000 -1,260 Level FlightAware
10:22PM -28.6890 153.5310 18° North 332 382 10,100 -2,700 Descending FlightAware
10:23PM -28.6540 153.5470 22° Northeast 322 371 8,700 -3,000 Descending FlightAware
10:23PM -28.6420 153.5520 20° North 321 369 8,500 -1,800 Descending FlightAware
10:23PM -28.5974 153.5721 20° North 319 367 7,500 -780 Descending Aus ATC (RADAR)
10:23PM -28.5930 153.5740 20° North 319 367 8,000 -1,680 Climbing FlightAware
10:24PM -28.5620 153.5880 22° Northeast 315 362 6,600 -1,800 Descending FlightAware
10:24PM -28.5330 153.6010 21° North 315 362 6,600 -1,860 Level FlightAware
10:25PM -28.5010 153.6140 20° North 305 351 5,300 -1,800 Descending FlightAware
10:25PM -28.4700 153.6250 17° North 305 351 5,300 -660 Level FlightAware
10:26PM -28.3796 153.6451 17° North 244 281 4,200 -960 Descending Aus ATC (RADAR)
10:28PM -28.3120 153.6000 17° North 3,100 -960 Descending FlightAware
10:28PM -28.3110 153.6000 360° North 3,100 -1,200 Level FlightAware
10:28PM -28.2930 153.5880 330° Northwest 192 221 2,600 -1,080 Descending FlightAware
10:28PM -28.2740 153.5760 331° Northwest 180 207 2,300 -960 Descending FlightAware
10:29PM -28.2600 153.5660 328° Northwest 166 191 1,900 -1,020 Descending FlightAware
10:29PM -28.2540 153.5620 330° Northwest 161 185 1,800 -840 Descending FlightAware
10:29PM -28.2410 153.5540 332° Northwest 150 173 1,500 -480 Descending FlightAware
10:30PM -28.2190 153.5400 331° Northwest 146 168 1,300 -720 Descending FlightAware
10:31PM -28.1826 153.5176 331° Northwest 125 144 300 -960 Descending Aus ATC (RADAR)